Enid, OK

2:53 PM CDT en Septiembre 19, 2014 (GMT -0500)
pr14 | Change Station
CLOSE
Current Station
Estación meteorológica personal
Location: Enid, OK
Altura: 1316 ft
Estaciones meteorológicas cercanas
4.0 Earthquake: Medford, Oklahoma (18 hours ago)  

Alt 1316 ft 36.41 °N, 97.93 °W | Updated 28 seconds ago

Muy nublado
Muy nublado
89.1 ° F
Sensación térmica 92 ° F
N
4.0
Viento Variable Viento desde Sur
Gusts 5.0 mph

Hoy
Alta -- | Baja -- ° F
--% Posibilidad de precipitaciones
Ayer
Alta -- | Baja -- ° F
Precip. -- pul
7:17 AM 7:32 PM
Creciente menguante, 17% visible
Presión 29.97 pul
Visibilidad 10.0 Millas
Nubes Nubes dispersas 4600 ft
Muy nublado 13000 ft
Índice de calor 92 ° F
Punto de rocío 67 ° F
Humedad 48%
Precipitaciones 0.00 pul
Espesor de la nieve No disponible.
UV 5.7 de una escala de 12
Polen 10.40 de una escala de 12
Calidad del aire No disponible.
Flu Activity No disponible.
METAR KWDG 191850Z 17015KT 10SM SCT046 BKN130 32/18 A2997

More Conditions Fewer Conditions

Presión 29.97 pul
Visibilidad 10.0 Millas
Nubes Nubes dispersas 4600 ft
Muy nublado 13000 ft
Índice de calor 92 ° F
Punto de rocío 67 ° F
Humedad 48%
Precipitaciones 0.00 pul
Espesor de la nieve No disponible.
UV 5.7 de una escala de 12
Polen 10.40 de una escala de 12
Calidad del aire No disponible.
Flu Activity No disponible.
METAR KWDG 191850Z 17015KT 10SM SCT046 BKN130 32/18 A2997

More Conditions Fewer Conditions

10-Day Weather Forecast

Almanac

Astronomía

Sep. 19, 2014 Salida Puesta
Hora real 7:17 AM CDT 7:32 PM CDT
Crepúsculo civil 6:51 AM CDT 7:58 PM CDT
Crepúsculo náutico 6:21 AM CDT 8:28 PM CDT
Crepúsculo astronómico 5:50 AM CDT 8:59 PM CDT
Luna 3:09 AM CDT 4:57 PM CDT
Horas de luz 13h 07m
Horas de luz
12h 15m
Tomorrow will be 2m 17s shorter.
Creciente menguante, 17% of the Moon is Illuminated
Hoy
Creciente menguante
Sep 24
Nueva
Oct 1
Cuarto creciente
Oct 8
Luna llena
Oct 15
Cuarto menguante

Extremos de hoy

Máximos del estado Bajos del estado

Community

WunderPhotos

Upload Photos

1,754,687 ¡fotos cargadas!

WunderBlogs® & News

By Dr. Jeff Masters
Director of Meteorology, Weather Underground
By Kari Strenfel
Meteorologist, Weather Underground
By Christopher C. Burt
Weather Historian, Weather Underground
September 19, 2014
September 19, 2014
September 19, 2014

Nearby

Grosos de nieve

Estación Profundido Altura
No tenemos constancia de nieve nueva.

Actividad de terremotos

Ciudad Distance Mag. Tiempo y dato
Guthrie, Oklahoma 47 Millas 3.9 12:23 PM CDT
2014-09-19
Jones, Oklahoma 66 Millas 2.8 1:13 AM CDT
2014-09-19
Perry, Oklahoma 37 Millas 3.3 12:08 AM CDT
2014-09-19
Cherokee, Oklahoma 25 Millas 2.8 10:11 PM CDT
2014-09-18
Magnitud mínima muestra es 2,5.

Temperaturas de aguas costeras

Lugar Temperatura
Sin partes meteorológicos de las estaciones

Estaciones meteorológicas cercanas